Time;durP1;ratioP1;P1;durP2;ratioP2;P2;SDS_P1;SDS_P2;PMS_P1;PMS_P2;Temp;Humidity;BMP_temperature;BMP_pressure;BME280_temperature;BME280_humidity;BME280_pressure;Samples;Min_cycle;Max_cycle;Signal;HPM_P1;HPM_P2
2022/05/19 00:00:21;;;;;;;4.57;1.90;;;16.30;99.90;;;16.18;82.26;97680.47;4966728;28;20648;-44
2022/05/19 00:02:47;;;;;;;6.55;2.10;;;16.30;99.90;;;16.13;82.68;97677.22;4950807;28;20479;-49
2022/05/19 00:05:13;;;;;;;3.33;2.20;;;16.20;99.90;;;16.09;82.52;97669.47;4967268;28;20042;-47
2022/05/19 00:07:39;;;;;;;2.20;1.88;;;16.20;99.90;;;16.07;83.24;97674.03;4969260;28;20093;-47
2022/05/19 00:10:05;;;;;;;3.67;1.90;;;16.20;99.90;;;16.03;84.06;97673.34;4970636;28;20126;-46
2022/05/19 00:12:31;;;;;;;3.22;2.00;;;16.10;99.90;;;15.95;85.17;97668.44;4965971;28;20043;-47
2022/05/19 00:14:57;;;;;;;3.47;2.05;;;16.10;99.90;;;15.90;85.74;97665.19;4981398;28;20100;-48
2022/05/19 00:17:24;;;;;;;2.63;2.10;;;16.00;99.90;;;15.84;85.97;97661.06;4970792;28;20185;-49
2022/05/19 00:19:51;;;;;;;2.45;1.95;;;16.00;99.90;;;15.81;85.94;97660.34;4969630;28;20045;-47
2022/05/19 00:22:16;;;;;;;3.28;2.05;;;15.90;99.90;;;15.77;86.43;97654.34;4968199;28;20030;-46
2022/05/19 00:24:42;;;;;;;7.07;2.05;;;15.90;99.90;;;15.74;87.38;97657.16;4978671;28;20050;-48
2022/05/19 00:27:08;;;;;;;3.63;1.90;;;15.80;99.90;;;15.68;88.30;97649.47;4972789;28;20034;-48
2022/05/19 00:29:33;;;;;;;5.53;2.42;;;15.80;99.90;;;15.68;88.71;97649.47;4972019;28;20038;-45
2022/05/19 00:31:59;;;;;;;3.05;2.28;;;15.80;99.90;;;15.66;89.46;97640.72;4972489;28;20030;-49
2022/05/19 00:34:26;;;;;;;3.13;2.30;;;15.80;99.90;;;15.62;90.09;97642.69;4980389;28;20125;-50
2022/05/19 00:37:01;;;;;;;4.65;2.42;;;15.70;99.90;;;15.59;90.39;97636.66;4976522;28;20039;-48
2022/05/19 00:39:28;;;;;;;5.43;2.22;;;15.70;99.90;;;15.53;91.08;97645.84;4982329;28;20573;-46
2022/05/19 00:44:39;;;;;;;6.75;2.45;;;15.60;99.90;;;15.44;92.04;97631.22;4973982;28;20072;-49
2022/05/19 00:47:07;;;;;;;3.88;2.35;;;15.60;99.90;;;15.41;92.43;97630.53;4973091;28;20193;-48
2022/05/19 00:49:40;;;;;;;5.03;2.30;;;15.50;99.90;;;15.39;92.44;97633.25;4967297;28;20027;-49
2022/05/19 00:52:10;;;;;;;3.10;2.10;;;15.50;99.90;;;15.37;92.49;97632.50;4971482;28;20038;-45
2022/05/19 00:54:49;;;;;;;5.40;2.60;;;15.50;99.90;;;15.35;92.38;97633.53;4972922;28;20027;-45
2022/05/19 00:57:22;;;;;;;2.45;2.25;;;15.50;99.90;;;15.32;91.92;97623.91;4974477;28;20141;-48
2022/05/19 00:59:55;;;;;;;;;;;15.40;99.90;;;15.31;92.28;97631.94;4971715;28;20254;-48
2022/05/19 01:02:26;;;;;;;;;;;15.40;99.90;;;15.23;92.28;97627.88;4984175;28;20020;-49
2022/05/19 01:05:04;;;;;;;2.88;2.13;;;15.40;99.90;;;15.22;92.40;97617.38;4970127;28;19917;-49
2022/05/19 01:08:00;;;;;;;4.57;2.30;;;15.40;99.90;;;15.26;91.99;97617.13;4984793;28;20751;-45
2022/05/19 01:10:26;;;;;;;3.03;2.15;;;15.40;99.90;;;15.23;92.25;97619.91;4988487;28;20046;-45
2022/05/19 01:12:54;;;;;;;6.50;2.40;;;15.40;99.90;;;15.23;92.19;97627.03;4972194;28;20041;-48
2022/05/19 01:15:20;;;;;;;3.35;1.90;;;15.40;99.90;;;15.22;91.84;97620.03;4969255;28;20490;-48
2022/05/19 01:17:47;;;;;;;3.35;2.17;;;15.40;99.90;;;15.20;91.92;97611.25;4963315;28;20041;-45
2022/05/19 01:20:22;;;;;;;2.45;2.03;;;15.30;99.90;;;15.20;91.50;97619.22;4969412;28;20481;-45
2022/05/19 01:22:55;;;;;;;2.28;2.08;;;15.30;99.90;;;15.16;91.46;97617.66;4971005;28;20435;-49
2022/05/19 01:26:04;;;;;;;6.45;2.30;;;15.30;99.90;;;15.12;91.23;97609.00;4969475;28;20034;-47
2022/05/19 01:28:30;;;;;;;2.70;2.08;;;15.30;99.90;;;15.11;90.20;97611.72;5001947;23;20057;-42
2022/05/19 01:30:56;;;;;;;2.80;1.92;;;15.20;99.90;;;15.05;89.78;97605.78;5004360;28;20037;-41
2022/05/19 01:33:22;;;;;;;4.82;1.90;;;15.20;99.90;;;15.05;90.13;97610.25;5005819;28;20065;-41
2022/05/19 01:35:48;;;;;;;2.45;1.77;;;15.20;99.90;;;15.00;89.77;97610.50;5004305;28;20029;-41
2022/05/19 01:38:26;;;;;;;2.67;1.80;;;15.20;99.90;;;14.97;89.88;97615.97;4995554;28;20031;-41
2022/05/19 01:41:21;;;;;;;4.30;2.10;;;15.10;99.90;;;14.86;90.65;97613.03;4980747;28;20120;-41
2022/05/19 01:44:22;;;;;;;3.70;1.70;;;15.10;99.90;;;14.83;90.99;97605.19;5011509;28;20034;-41
2022/05/19 01:47:20;;;;;;;2.60;2.10;;;15.00;99.90;;;14.79;91.22;97598.34;4983203;28;21687;-41
2022/05/19 01:50:13;;;;;;;2.72;1.88;;;14.90;99.90;;;14.73;91.70;97595.97;4986083;28;20061;-41
2022/05/19 01:52:45;;;;;;;2.88;2.05;;;14.90;99.90;;;14.49;91.86;97567.91;4992498;28;20038;-43
2022/05/19 01:55:35;;;;;;;3.05;2.10;;;14.80;99.90;;;14.68;91.59;97604.19;4986213;28;20022;-43
2022/05/19 01:58:18;;;;;;;3.30;1.90;;;14.80;99.90;;;14.66;92.11;97598.94;4991128;28;20038;-41
2022/05/19 02:00:47;;;;;;;4.03;2.30;;;14.80;99.90;;;14.59;92.89;97594.88;5007422;28;20033;-43
2022/05/19 02:03:21;;;;;;;3.13;2.50;;;14.80;99.90;;;14.47;93.50;97582.19;4990170;28;20030;-43
2022/05/19 02:06:15;;;;;;;4.68;2.33;;;14.70;99.90;;;14.53;94.08;97597.78;4988709;28;20033;-45
2022/05/19 02:08:51;;;;;;;3.55;2.65;;;14.70;99.90;;;14.46;95.18;97596.38;4990087;28;20035;-41
2022/05/19 02:11:26;;;;;;;3.15;2.20;;;14.70;99.90;;;14.44;95.87;97596.47;4996458;28;20029;-42
2022/05/19 02:13:55;;;;;;;3.53;2.60;;;14.60;99.90;;;14.42;96.40;97597.47;4993166;28;20026;-41
2022/05/19 02:16:22;;;;;;;3.47;2.33;;;14.60;99.90;;;14.41;96.71;97601.06;4992985;28;20022;-41
2022/05/19 02:18:49;;;;;;;3.63;2.35;;;14.60;99.90;;;14.39;96.65;97606.47;4995343;28;20041;-43
2022/05/19 02:21:17;;;;;;;3.42;2.08;;;14.60;99.90;;;14.38;96.46;97602.06;4991221;28;20057;-41
2022/05/19 02:23:43;;;;;;;3.33;2.30;;;14.50;99.90;;;14.38;95.62;97601.22;4995557;28;20042;-45
2022/05/19 02:26:09;;;;;;;4.03;2.30;;;14.50;99.90;;;14.36;95.24;97596.00;5007546;28;20045;-44
2022/05/19 02:28:39;;;;;;;3.22;1.83;;;14.50;99.90;;;14.41;93.84;97598.41;4994478;28;20168;-42
2022/05/19 02:31:05;;;;;;;3.38;2.47;;;14.60;99.90;;;14.44;93.13;97600.91;4987866;28;20048;-42
2022/05/19 02:33:31;;;;;;;3.88;2.30;;;14.60;99.90;;;14.42;92.82;97597.47;4994599;28;20389;-43
2022/05/19 02:35:57;;;;;;;2.50;1.92;;;14.60;99.90;;;14.46;91.13;97596.38;4990023;28;20033;-43
2022/05/19 02:38:24;;;;;;;2.20;1.80;;;14.60;99.90;;;14.46;90.80;97597.25;4998198;28;20061;-42
2022/05/19 02:40:50;;;;;;;5.35;2.13;;;14.60;99.90;;;14.48;90.50;97605.13;4995583;28;20112;-43
2022/05/19 02:43:17;;;;;;;3.55;1.90;;;14.70;99.90;;;14.29;90.92;97573.34;4993464;28;21747;-42
2022/05/19 02:45:45;;;;;;;3.90;1.92;;;14.60;99.90;;;14.41;90.85;97593.09;4999717;28;20533;-43
2022/05/19 02:48:12;;;;;;;5.35;2.30;;;14.60;99.90;;;14.44;90.32;97607.06;4990295;28;20072;-42
2022/05/19 02:50:40;;;;;;;2.80;1.98;;;14.60;99.90;;;14.44;90.14;97601.75;4991644;28;20034;-42
2022/05/19 02:53:06;;;;;;;4.50;2.65;;;14.60;99.90;;;14.43;90.25;97609.81;4993371;28;20139;-42
2022/05/19 02:55:32;;;;;;;3.03;2.00;;;14.60;99.90;;;14.41;90.85;97606.34;4993418;28;20034;-42
2022/05/19 02:57:58;;;;;;;4.25;2.25;;;14.60;99.90;;;14.31;91.18;97606.81;4992538;28;20041;-43
2022/05/19 03:00:25;;;;;;;2.35;2.08;;;14.50;99.90;;;14.35;91.27;97612.84;4994983;28;20688;-42
2022/05/19 03:02:59;;;;;;;3.40;1.95;;;14.50;99.90;;;14.31;91.32;97605.97;4986681;28;20038;-42
2022/05/19 03:05:31;;;;;;;3.53;2.10;;;14.50;99.90;;;14.30;90.94;97610.41;4991565;28;20040;-42
2022/05/19 03:07:57;;;;;;;4.88;1.90;;;14.50;99.90;;;14.26;91.91;97608.81;4994760;28;20053;-41
2022/05/19 03:10:24;;;;;;;2.15;1.92;;;14.40;99.90;;;14.19;91.85;97606.56;4991793;28;20556;-42
2022/05/19 03:12:50;;;;;;;4.30;2.05;;;14.40;99.90;;;14.18;91.52;97602.19;4987712;28;20038;-43
2022/05/19 03:15:16;;;;;;;3.92;2.20;;;14.30;99.90;;;14.14;91.65;97606.78;4990028;28;20043;-43
2022/05/19 03:17:43;;;;;;;3.40;1.85;;;14.30;99.90;;;14.05;91.33;97594.84;4995652;28;20029;-43
2022/05/19 03:20:11;;;;;;;3.03;1.95;;;14.30;99.90;;;14.05;91.22;97592.19;5000669;28;20180;-43
2022/05/19 03:22:37;;;;;;;4.07;2.17;;;14.20;99.90;;;14.03;90.84;97588.75;4993444;28;20034;-42
2022/05/19 03:25:05;;;;;;;2.75;2.00;;;14.20;99.90;;;14.01;90.81;97576.47;4992529;28;20033;-43
2022/05/19 03:27:32;;;;;;;3.35;1.75;;;14.20;99.90;;;14.05;90.77;97592.19;4990235;28;20431;-43
2022/05/19 03:29:58;;;;;;;2.90;1.83;;;14.20;99.90;;;14.04;90.93;97602.84;4998191;28;21295;-42
2022/05/19 03:32:23;;;;;;;3.20;1.95;;;14.20;99.90;;;13.98;91.39;97596.06;4987903;28;20042;-42
2022/05/19 03:34:49;;;;;;;3.13;1.83;;;14.20;99.90;;;13.92;91.50;97598.97;4996529;28;20073;-43
2022/05/19 03:37:15;;;;;;;2.90;1.80;;;14.20;99.90;;;13.92;92.27;97605.13;4992166;28;20460;-42
2022/05/19 03:39:41;;;;;;;3.33;2.00;;;14.10;99.90;;;13.86;92.97;97604.59;4997797;28;20370;-41
2022/05/19 03:42:08;;;;;;;3.28;2.05;;;14.00;99.90;;;13.73;93.48;97591.06;4986199;28;20522;-42
2022/05/19 03:44:36;;;;;;;3.40;2.00;;;14.00;99.90;;;13.75;93.57;97595.34;4993889;28;20036;-42
2022/05/19 03:47:03;;;;;;;3.03;2.08;;;14.00;99.90;;;13.73;93.55;97597.19;4998371;28;20037;-41
2022/05/19 03:49:29;;;;;;;3.28;2.10;;;14.00;99.90;;;13.76;93.32;97590.88;4994059;28;20262;-41
2022/05/19 03:51:54;;;;;;;3.97;2.15;;;14.00;99.90;;;13.81;93.31;97599.47;4988866;28;20124;-41
2022/05/19 03:54:20;;;;;;;3.33;2.00;;;14.00;99.90;;;13.84;93.03;97590.53;4990652;28;20050;-41
2022/05/19 03:56:46;;;;;;;2.20;1.70;;;14.00;99.90;;;13.86;93.28;97597.47;4995280;28;20040;-44
2022/05/19 03:59:12;;;;;;;2.15;1.80;;;14.00;99.90;;;13.87;93.92;97593.03;4990219;28;20045;-42
2022/05/19 04:01:39;;;;;;;3.60;2.08;;;14.00;99.90;;;13.89;94.40;97601.75;4998166;28;20041;-42
2022/05/19 04:04:06;;;;;;;3.00;2.00;;;14.00;99.90;;;13.90;94.01;97608.81;4995896;28;20095;-42
2022/05/19 04:06:34;;;;;;;2.65;2.33;;;14.10;99.90;;;13.89;94.52;97607.94;5002654;28;20033;-42
2022/05/19 04:09:00;;;;;;;2.92;2.20;;;14.10;99.90;;;13.97;95.49;97604.94;5000546;28;20036;-46
2022/05/19 04:11:26;;;;;;;3.30;2.40;;;14.10;99.90;;;13.98;96.49;97606.66;4993377;28;20190;-42
2022/05/19 04:13:52;;;;;;;4.88;2.58;;;14.10;99.90;;;13.95;96.86;97598.84;4994904;28;20032;-42
2022/05/19 04:16:18;;;;;;;3.50;2.10;;;14.10;99.90;;;14.00;96.94;97606.56;4996517;28;20489;-43
2022/05/19 04:18:44;;;;;;;3.13;2.28;;;14.20;99.90;;;14.06;96.68;97607.13;4999023;28;20030;-42
2022/05/19 04:21:10;;;;;;;3.80;2.35;;;14.20;99.90;;;14.11;96.76;97601.63;4992209;28;20041;-42
2022/05/19 04:23:35;;;;;;;3.00;2.47;;;14.30;99.90;;;14.15;96.86;97600.53;4991038;28;20556;-43
2022/05/19 04:26:01;;;;;;;3.40;2.53;;;14.40;99.90;;;14.23;96.76;97603.69;4995442;28;20040;-42
2022/05/19 04:28:27;;;;;;;5.22;2.53;;;14.40;99.90;;;14.36;96.14;97619.03;4999251;28;20088;-42
2022/05/19 04:30:53;;;;;;;3.00;2.30;;;14.50;99.90;;;14.44;95.43;97616.84;4987118;28;20379;-41
2022/05/19 04:33:18;;;;;;;3.55;2.30;;;14.60;99.90;;;14.50;94.32;97616.53;4992628;28;20030;-41
2022/05/19 04:35:44;;;;;;;4.15;2.45;;;14.70;99.90;;;14.69;91.78;97625.31;4985055;28;20145;-42
2022/05/19 04:38:14;;;;;;;3.30;2.42;;;14.90;99.90;;;14.80;91.20;97632.75;4988010;28;20580;-42
2022/05/19 04:40:47;;;;;;;2.75;1.70;;;15.00;99.90;;;14.88;90.40;97622.63;4988973;28;20121;-42
2022/05/19 04:43:19;;;;;;;3.53;2.25;;;15.10;99.90;;;15.03;89.72;97636.91;4994178;28;20026;-42
2022/05/19 04:45:48;;;;;;;2.08;1.80;;;15.20;99.90;;;15.14;89.64;97632.84;4996886;28;20038;-42
2022/05/19 04:48:13;;;;;;;2.88;2.00;;;15.30;99.90;;;15.22;89.66;97633.31;4995341;28;20204;-42
2022/05/19 04:50:39;;;;;;;3.10;1.92;;;15.40;99.90;;;15.31;89.64;97624.84;4994651;28;20700;-42
2022/05/19 04:53:05;;;;;;;4.45;2.03;;;15.50;99.90;;;15.42;88.45;97630.47;4994168;28;20049;-42
2022/05/19 04:55:30;;;;;;;3.50;1.95;;;15.60;99.90;;;15.53;87.87;97639.66;4990127;28;20030;-43
2022/05/19 04:57:56;;;;;;;4.50;1.95;;;15.70;99.90;;;15.64;86.84;97632.81;4993218;28;20044;-43
2022/05/19 05:00:22;;;;;;;2.80;1.95;;;15.80;99.90;;;15.73;85.18;97625.31;4995259;28;20601;-43
2022/05/19 05:02:47;;;;;;;2.05;1.67;;;15.90;99.90;;;15.90;83.91;97633.25;4990740;28;20034;-43
2022/05/19 05:05:13;;;;;;;3.60;1.80;;;16.10;99.90;;;16.05;82.86;97636.03;4994294;28;20034;-43
2022/05/19 05:07:39;;;;;;;3.53;1.92;;;16.20;99.90;;;16.18;82.11;97651.19;4992249;28;20125;-43
2022/05/19 05:10:06;;;;;;;3.67;2.15;;;16.30;99.90;;;16.32;81.07;97633.63;4993839;28;20405;-42
2022/05/19 05:12:31;;;;;;;3.75;2.00;;;16.40;99.90;;;16.47;80.47;97640.72;4980791;28;20041;-42
2022/05/19 05:14:57;;;;;;;2.50;1.90;;;16.60;99.90;;;16.60;80.03;97635.56;4991367;28;20037;-42
2022/05/19 05:17:23;;;;;;;5.03;2.13;;;16.70;99.90;;;16.75;79.80;97645.31;4995066;28;20065;-43
2022/05/19 05:19:49;;;;;;;2.58;1.98;;;16.90;99.90;;;16.85;78.36;97643.03;5010290;28;20782;-42
2022/05/19 05:22:15;;;;;;;3.25;2.00;;;17.00;99.90;;;17.06;78.18;97650.69;4997233;28;20577;-42
2022/05/19 05:24:40;;;;;;;3.85;1.95;;;17.20;99.90;;;17.14;76.99;97645.78;4990197;28;20093;-42
2022/05/19 05:27:07;;;;;;;1.90;1.70;;;17.30;99.90;;;17.25;76.96;97655.78;4989803;28;20038;-44
2022/05/19 05:29:33;;;;;;;2.65;1.80;;;17.30;99.90;;;17.32;75.88;97662.47;4995587;28;20100;-43
2022/05/19 05:31:59;;;;;;;2.95;1.85;;;17.40;99.90;;;17.44;75.00;97659.03;4989735;28;20029;-43
2022/05/19 05:34:25;;;;;;;2.72;1.75;;;17.50;99.90;;;17.66;73.41;97653.28;4995658;28;20493;-43
2022/05/19 05:36:52;;;;;;;2.50;1.80;;;17.60;99.90;;;17.90;72.50;97642.06;4992100;28;20121;-44
2022/05/19 05:39:18;;;;;;;2.28;1.85;;;17.80;99.90;;;18.19;70.07;97647.34;4994254;28;20059;-41
2022/05/19 05:41:45;;;;;;;2.45;1.70;;;18.00;99.90;;;18.48;67.79;97637.47;4997175;28;20029;-43
2022/05/19 05:44:11;;;;;;;2.38;1.77;;;18.20;99.90;;;18.73;66.97;97646.53;5009546;28;20044;-42
2022/05/19 05:46:37;;;;;;;4.55;2.15;;;18.40;99.90;;;18.85;65.58;97646.59;5004889;28;20512;-45
2022/05/19 05:49:03;;;;;;;2.58;1.52;;;18.50;99.90;;;18.99;64.76;97642.16;5006016;28;20044;-44
2022/05/19 05:51:29;;;;;;;2.50;1.75;;;18.70;99.90;;;19.10;63.35;97650.31;5002312;28;20081;-42
2022/05/19 05:53:55;;;;;;;3.00;1.92;;;18.80;99.90;;;19.20;63.02;97646.06;5005813;28;20060;-43
2022/05/19 05:56:22;;;;;;;2.97;2.10;;;19.00;99.90;;;19.27;61.73;97657.19;4994218;28;20065;-42
2022/05/19 05:58:48;;;;;;;2.55;1.63;;;19.10;99.90;;;19.34;61.49;97657.63;4992687;28;20060;-43
2022/05/19 06:01:18;;;;;;;5.65;1.90;;;19.20;99.90;;;19.38;61.31;97653.78;4986264;28;20034;-43
2022/05/19 06:03:45;;;;;;;4.38;2.28;;;19.30;99.90;;;19.44;61.08;97650.69;4984542;28;21202;-43
2022/05/19 06:06:11;;;;;;;10.10;2.33;;;19.40;99.90;;;19.49;60.27;97653.91;4989906;28;20041;-43
2022/05/19 06:08:37;;;;;;;3.03;1.70;;;19.50;99.90;;;19.52;59.49;97645.66;4996557;28;20799;-43
2022/05/19 06:11:04;;;;;;;5.63;2.28;;;19.50;99.90;;;19.59;61.16;97654.97;5002790;28;20038;-42
2022/05/19 06:13:30;;;;;;;5.30;1.90;;;19.50;99.90;;;19.61;59.97;97661.09;5006508;28;20044;-42
2022/05/19 06:15:56;;;;;;;7.03;2.30;;;19.60;99.90;;;19.64;59.49;97663.53;4996514;28;20033;-44
2022/05/19 06:18:22;;;;;;;3.13;2.03;;;19.70;99.90;;;19.69;60.65;97651.66;4999972;28;20535;-42
2022/05/19 06:20:48;;;;;;;2.28;1.88;;;19.80;99.90;;;19.83;60.31;97649.75;4999914;28;20034;-43
2022/05/19 06:23:16;;;;;;;5.15;1.90;;;19.90;99.90;;;20.02;59.01;97645.75;5005139;28;20183;-42
2022/05/19 06:25:42;;;;;;;4.68;1.90;;;20.00;99.90;;;20.13;59.51;97653.88;5001200;28;20338;-43
2022/05/19 06:28:08;;;;;;;2.47;2.10;;;20.10;99.90;;;20.18;59.28;97662.44;5004572;28;20276;-42
2022/05/19 06:30:34;;;;;;;2.92;2.05;;;20.20;99.80;;;20.21;61.10;97654.19;5000044;28;20034;-42
2022/05/19 06:33:00;;;;;;;3.40;1.70;;;20.30;99.90;;;20.37;59.87;97661.97;4998670;28;20481;-42
2022/05/19 06:35:29;;;;;;;2.53;1.90;;;20.40;99.90;;;20.50;60.22;97661.09;5002791;28;20485;-43
2022/05/19 06:37:56;;;;;;;2.95;1.90;;;20.60;99.90;;;20.59;59.22;97660.41;5008327;28;20088;-43
2022/05/19 06:40:24;;;;;;;3.10;1.90;;;20.60;99.50;;;20.71;59.32;97662.22;5009577;28;20048;-45
2022/05/19 06:42:51;;;;;;;3.55;1.92;;;20.70;99.30;;;20.76;57.29;97652.00;5008088;28;20048;-45
2022/05/19 06:45:21;;;;;;;5.63;2.08;;;20.80;98.70;;;20.90;57.46;97656.31;5007928;28;20325;-43
2022/05/19 06:47:47;;;;;;;3.55;2.10;;;21.00;98.50;;;21.04;56.76;97657.97;5007860;28;20041;-43
2022/05/19 06:50:13;;;;;;;9.43;2.42;;;21.10;98.30;;;21.16;54.65;97654.34;5004899;28;20096;-44
2022/05/19 06:53:03;;;;;;;3.95;1.80;;;21.20;97.40;;;21.31;55.51;97660.38;5003120;28;20038;-43
2022/05/19 06:55:36;;;;;;;4.97;2.47;;;21.30;97.80;;;21.38;53.37;97671.50;5009156;28;20022;-42
2022/05/19 06:58:03;;;;;;;4.40;2.25;;;21.40;96.70;;;21.45;54.85;97664.72;5004976;28;20037;-43
2022/05/19 07:00:30;;;;;;;5.43;1.80;;;21.40;96.70;;;21.52;53.34;97665.09;5003254;28;20040;-43
2022/05/19 07:02:59;;;;;;;3.13;2.10;;;21.50;96.40;;;21.65;53.90;97665.84;5023130;28;20127;-44
2022/05/19 07:05:30;;;;;;;2.33;2.03;;;21.70;96.40;;;21.72;51.39;97668.91;4998740;28;20030;-42
2022/05/19 07:07:56;;;;;;;2.92;1.90;;;21.70;95.40;;;21.82;52.40;97669.91;5002561;28;20047;-42
2022/05/19 07:10:24;;;;;;;3.10;2.00;;;21.90;95.70;;;21.93;52.41;97661.88;5003292;28;20709;-42
2022/05/19 07:12:50;;;;;;;2.88;2.00;;;22.00;96.00;;;22.04;52.19;97668.22;4998668;28;20092;-43
2022/05/19 07:15:19;;;;;;;5.32;2.15;;;22.00;95.20;;;22.10;51.80;97673.09;5000783;28;20443;-42
2022/05/19 07:17:45;;;;;;;3.10;2.25;;;22.10;94.70;;;22.11;50.71;97670.28;5007509;28;20229;-43
2022/05/19 07:22:55;;;;;;;2.28;2.08;;;22.30;94.80;;;22.31;51.14;97673.25;4999415;28;20143;-42
2022/05/19 07:25:21;;;;;;;6.05;4.72;;;22.30;94.50;;;22.47;51.10;97676.41;5006966;28;20112;-42
2022/05/19 07:30:21;;;;;;;3.42;2.22;;;22.60;94.30;;;22.71;51.02;97672.69;4978558;28;20062;-51
2022/05/19 07:32:47;;;;;;;3.95;2.28;;;22.70;94.00;;;22.78;50.05;97667.66;4974585;28;20030;-48
2022/05/19 07:35:15;;;;;;;2.47;2.20;;;22.80;93.70;;;22.93;52.77;97665.53;4977863;28;20472;-52
2022/05/19 07:37:41;;;;;;;3.10;2.20;;;22.90;94.30;;;22.96;50.18;97667.97;4961280;28;20038;-52
2022/05/19 07:40:08;;;;;;;5.63;2.10;;;23.00;93.40;;;23.05;50.18;97668.06;4977036;28;20035;-49
2022/05/19 07:42:36;;;;;;;4.00;2.15;;;23.00;93.20;;;23.19;52.70;97664.22;4974961;28;20034;-49
2022/05/19 07:45:02;;;;;;;4.50;2.10;;;23.20;94.50;;;23.35;51.29;97660.25;4971579;28;20058;-47
2022/05/19 07:47:31;;;;;;;5.00;2.38;;;23.30;93.80;;;23.43;49.56;97663.97;4966414;28;20042;-49
2022/05/19 07:49:56;;;;;;;5.45;2.28;;;23.50;92.90;;;23.47;49.61;97672.63;4961155;28;20081;-49
2022/05/19 07:52:23;;;;;;;4.18;2.63;;;23.50;92.70;;;23.49;48.12;97669.81;4969205;28;20105;-49
2022/05/19 07:54:49;;;;;;;4.15;2.60;;;23.50;91.90;;;23.53;50.63;97669.44;4967477;28;20034;-48
2022/05/19 07:57:15;;;;;;;2.92;2.10;;;23.60;93.00;;;23.54;49.18;97649.59;4975197;28;20502;-50
2022/05/19 07:59:41;;;;;;;2.85;2.10;;;23.60;92.50;;;23.68;49.06;97664.56;4972787;28;20035;-49
2022/05/19 08:02:07;;;;;;;3.33;2.10;;;23.70;92.30;;;23.81;49.18;97667.06;4973178;28;20136;-48
2022/05/19 08:04:34;;;;;;;2.72;2.20;;;23.80;92.40;;;23.91;49.61;97670.69;4972092;28;20038;-47
2022/05/19 08:07:01;;;;;;;4.78;2.10;;;23.90;92.70;;;24.05;49.02;97668.59;4973768;28;20049;-48
2022/05/19 08:12:17;;;;;;;3.08;2.33;;;24.10;92.00;;;24.27;48.07;97660.34;4971433;28;20101;-48
2022/05/19 08:17:27;;;;;;;2.58;2.10;;;24.30;91.30;;;24.32;48.66;97662.63;4974081;28;20918;-49
2022/05/19 08:19:53;;;;;;;4.28;2.33;;;24.30;91.50;;;24.39;47.92;97661.09;4970582;28;20453;-47
2022/05/19 08:22:19;;;;;;;4.60;2.38;;;24.40;91.20;;;24.46;47.81;97664.97;4975153;28;20034;-48
2022/05/19 08:24:49;;;;;;;2.53;2.03;;;24.50;91.00;;;24.55;47.72;97668.69;4979026;28;20037;-50
2022/05/19 08:27:14;;;;;;;5.05;2.00;;;24.50;90.90;;;24.62;47.33;97663.59;4976144;28;20049;-49
2022/05/19 08:29:40;;;;;;;2.72;2.08;;;24.60;90.60;;;24.74;48.04;97660.63;4975256;28;20049;-51
2022/05/19 08:32:06;;;;;;;3.58;2.30;;;24.70;90.50;;;24.87;47.32;97665.78;4973997;28;20094;-51
2022/05/19 08:34:32;;;;;;;2.60;2.13;;;24.80;90.60;;;25.00;47.81;97661.94;4979973;28;20085;-48
2022/05/19 08:36:57;;;;;;;4.30;2.15;;;25.00;90.70;;;25.16;46.94;97667.66;4981083;28;20034;-48
2022/05/19 08:39:25;;;;;;;3.05;2.15;;;25.10;90.20;;;25.30;47.06;97667.25;4971550;28;20038;-49
2022/05/19 08:41:59;;;;;;;2.78;2.28;;;25.20;90.10;;;25.44;46.18;97671.34;4977264;28;20450;-51
2022/05/19 08:44:34;;;;;;;3.03;2.08;;;25.40;88.60;;;25.57;45.95;97660.22;4975374;28;20080;-48
2022/05/19 08:47:03;;;;;;;2.67;2.30;;;25.50;88.80;;;25.60;45.51;97659.94;4978668;28;20034;-51
2022/05/19 08:49:58;;;;;;;4.65;2.55;;;25.60;87.70;;;25.65;45.90;97654.97;4954843;28;20034;-48
2022/05/19 08:52:26;;;;;;;3.40;2.00;;;25.60;88.60;;;25.75;46.10;97656.78;4975227;28;20402;-48
2022/05/19 08:54:55;;;;;;;4.03;2.47;;;25.70;88.00;;;25.79;45.36;97650.97;4980098;28;20037;-50
2022/05/19 08:57:29;;;;;;;3.83;2.80;;;25.80;87.50;;;25.85;45.34;97652.22;4977370;28;20448;-48
2022/05/19 09:00:17;;;;;;;2.92;2.42;;;25.80;87.30;;;25.90;44.63;97650.78;4979137;28;20034;-50
2022/05/19 09:03:29;;;;;;;3.63;2.30;;;25.80;85.50;;;26.04;45.44;97649.50;4975415;28;20046;-45
2022/05/19 09:06:14;;;;;;;4.30;2.20;;;26.00;87.90;;;26.05;44.46;97645.78;4952769;28;20602;-44
2022/05/19 09:09:23;;;;;;;3.72;2.22;;;26.00;85.90;;;26.18;45.86;97650.00;4956630;28;20328;-44
2022/05/19 09:11:58;;;;;;;2.40;2.20;;;26.10;87.70;;;26.28;44.74;97659.75;4974089;28;20034;-45
2022/05/19 09:14:28;;;;;;;4.32;2.35;;;26.20;85.40;;;26.39;44.15;97653.31;4975124;28;20058;-46
2022/05/19 09:17:00;;;;;;;2.25;2.05;;;26.40;84.70;;;26.50;44.33;97648.69;4953044;28;20108;-44
2022/05/19 09:19:38;;;;;;;2.78;2.38;;;26.40;84.40;;;26.62;43.45;97647.53;4960346;28;20037;-44
2022/05/19 09:22:11;;;;;;;6.82;2.20;;;26.50;83.50;;;26.68;43.50;97646.91;4948707;28;20490;-46
2022/05/19 09:24:37;;;;;;;3.22;2.92;;;26.60;82.60;;;26.73;46.40;97647.31;4968948;28;20128;-46
2022/05/19 09:27:05;;;;;;;5.20;2.40;;;26.70;85.40;;;26.87;43.79;97639.69;4966356;28;20134;-47
2022/05/19 09:29:41;;;;;;;2.90;2.30;;;26.90;84.90;;;26.99;43.42;97644.72;4962653;28;20039;-48
2022/05/19 09:32:26;;;;;;;4.30;2.83;;;27.00;82.70;;;27.11;42.83;97639.91;4963200;28;20531;-47
2022/05/19 09:35:21;;;;;;;5.88;2.90;;;27.00;82.00;;;27.24;42.58;97632.25;4965415;28;20030;-49
2022/05/19 09:38:03;;;;;;;3.28;2.72;;;27.20;80.70;;;27.39;44.25;97632.56;4953249;28;20280;-49
2022/05/19 09:40:33;;;;;;;3.38;2.90;;;27.30;82.70;;;27.28;42.06;97646.34;4964647;28;20382;-46
2022/05/19 09:43:20;;;;;;;4.68;2.63;;;27.30;79.40;;;27.35;43.81;97655.56;4950089;28;20034;-46
2022/05/19 09:45:53;;;;;;;3.40;2.55;;;27.30;81.90;;;27.38;45.30;97649.81;4963114;28;20290;-46
2022/05/19 09:48:30;;;;;;;4.15;2.65;;;27.30;83.90;;;27.35;46.35;97654.69;4968552;28;20039;-48
2022/05/19 09:51:09;;;;;;;3.00;2.63;;;27.30;85.10;;;27.32;41.91;97653.16;4968554;28;20034;-47
2022/05/19 09:53:46;;;;;;;4.78;2.63;;;27.40;80.70;;;27.23;42.92;97664.88;4970130;28;20131;-47
2022/05/19 09:56:17;;;;;;;4.68;2.80;;;27.30;79.90;;;27.31;43.73;97659.56;4961801;28;20169;-49
2022/05/19 09:58:48;;;;;;;5.32;2.67;;;27.40;81.20;;;27.39;43.00;97654.22;4945009;28;20168;-47
2022/05/19 10:01:45;;;;;;;6.35;2.70;;;27.40;80.70;;;27.51;44.34;97659.38;4963238;28;20026;-47
2022/05/19 10:04:32;;;;;;;3.75;2.42;;;27.50;80.60;;;27.55;47.78;97655.38;4955457;28;20057;-47
2022/05/19 10:07:18;;;;;;;3.50;2.40;;;27.60;87.40;;;27.67;45.74;97651.38;4949050;28;20027;-46
2022/05/19 10:09:47;;;;;;;4.57;2.58;;;27.60;85.00;;;27.74;42.41;97651.59;4959879;28;20421;-46
2022/05/19 10:12:25;;;;;;;4.93;2.30;;;27.70;80.10;;;27.87;41.51;97664.72;4969396;28;20483;-47
2022/05/19 10:15:05;;;;;;;3.88;2.53;;;27.80;79.40;;;27.94;42.19;97655.84;4977013;28;20100;-46
2022/05/19 10:18:14;;;;;;;2.72;2.42;;;28.00;78.30;;;28.00;40.84;97654.34;4944784;28;20497;-45
2022/05/19 10:21:00;;;;;;;3.15;2.50;;;28.00;76.40;;;28.18;42.80;97654.28;4955860;28;20038;-46
2022/05/19 10:24:03;;;;;;;5.10;2.40;;;28.10;79.20;;;28.28;41.41;97646.88;4955757;28;20398;-45
2022/05/19 10:26:49;;;;;;;3.13;2.65;;;28.30;77.20;;;28.27;42.06;97647.88;4947066;28;20026;-46
2022/05/19 10:33:21;;;;;;;4.40;2.90;;;28.30;76.50;;;28.32;40.41;97645.53;4948681;28;20139;-48
2022/05/19 10:36:32;;;;;;;4.18;2.80;;;28.30;75.00;;;28.43;40.64;97644.38;4959068;28;20046;-46
2022/05/19 10:39:50;;;;;;;6.00;3.67;;;28.30;75.20;;;28.45;41.67;97633.38;4956311;28;20069;-48
2022/05/19 10:42:27;;;;;;;4.00;3.08;;;28.40;75.90;;;28.40;41.28;97625.72;4950501;28;20690;-48
2022/05/19 10:45:25;;;;;;;5.03;3.30;;;28.40;76.10;;;28.38;41.24;97623.16;4959175;28;20054;-50
2022/05/19 10:48:13;;;;;;;12.45;3.10;;;28.40;76.10;;;28.48;44.77;97622.16;4950627;28;20129;-47
2022/05/19 10:50:50;;;;;;;4.25;3.00;;;28.40;81.40;;;28.40;41.67;97619.44;4966696;28;22020;-49
2022/05/19 10:53:42;;;;;;;3.83;2.80;;;28.40;77.10;;;28.43;42.07;97621.84;4950406;28;20062;-49